createdAt,value
2023-03-27T00:01:18.330Z,3.73
2023-03-27T00:04:21.602Z,4.10
2023-03-27T00:07:26.392Z,4.17
2023-03-27T00:10:31.024Z,5.17
2023-03-27T00:13:34.488Z,4.63
2023-03-27T00:16:38.063Z,4.70
2023-03-27T00:19:41.167Z,4.20
2023-03-27T00:22:45.870Z,4.57
2023-03-27T00:25:52.584Z,4.63
2023-03-27T00:28:55.726Z,4.70
2023-03-27T00:31:58.700Z,4.57
2023-03-27T00:35:01.805Z,4.30
2023-03-27T00:38:07.704Z,4.30
2023-03-27T00:41:10.916Z,4.23
2023-03-27T00:44:31.146Z,5.10
2023-03-27T00:47:39.767Z,3.70
2023-03-27T00:50:46.656Z,3.97
2023-03-27T00:53:52.644Z,3.97
2023-03-27T00:56:59.052Z,4.70
2023-03-27T01:00:09.477Z,5.47
2023-03-27T01:03:14.268Z,3.80
2023-03-27T01:06:18.804Z,4.63
2023-03-27T01:09:27.067Z,4.57
2023-03-27T01:12:38.965Z,5.10
2023-03-27T01:15:54.507Z,4.43
2023-03-27T01:19:29.130Z,4.13
2023-03-27T01:23:03.823Z,4.87
2023-03-27T01:26:40.057Z,3.77
2023-03-27T01:30:00.811Z,4.57
2023-03-27T01:34:03.542Z,4.77
2023-03-27T01:37:52.969Z,4.80
2023-03-27T01:41:02.525Z,5.23
2023-03-27T01:44:14.214Z,4.97
2023-03-27T01:47:28.957Z,5.50
2023-03-27T01:50:39.968Z,5.93
2023-03-27T01:53:48.160Z,4.77
2023-03-27T01:57:02.527Z,6.03
2023-03-27T02:00:19.421Z,5.20
2023-03-27T02:03:28.210Z,4.93
2023-03-27T02:06:34.345Z,5.50
2023-03-27T02:09:42.020Z,5.17
2023-03-27T02:12:50.259Z,4.50
2023-03-27T02:15:54.739Z,4.80
2023-03-27T02:19:03.068Z,4.57
2023-03-27T02:22:07.896Z,4.33
2023-03-27T02:25:31.700Z,4.97
2023-03-27T02:28:58.282Z,4.33
2023-03-27T02:32:14.299Z,4.07
2023-03-27T02:35:29.470Z,4.07
2023-03-27T02:38:41.766Z,4.47
2023-03-27T02:41:51.968Z,4.60
2023-03-27T02:45:17.398Z,5.53
2023-03-27T02:48:29.473Z,4.60
2023-03-27T02:51:43.717Z,5.33
2023-03-27T02:54:54.400Z,4.47
2023-03-27T02:58:02.258Z,3.90
2023-03-27T03:01:27.600Z,4.57
2023-03-27T03:04:47.843Z,3.97
2023-03-27T03:07:58.244Z,4.33
2023-03-27T03:11:04.577Z,4.10
2023-03-27T03:14:07.553Z,3.83
2023-03-27T03:17:12.047Z,4.00
2023-03-27T03:20:17.042Z,4.20
2023-03-27T03:23:20.013Z,3.77
2023-03-27T03:26:23.191Z,3.60
2023-03-27T03:29:35.525Z,4.50
2023-03-27T03:33:03.278Z,4.23
2023-03-27T03:36:07.517Z,4.07
2023-03-27T03:39:13.043Z,4.60
2023-03-27T03:42:22.456Z,4.20
2023-03-27T03:45:27.780Z,4.40
2023-03-27T03:48:32.144Z,3.90
2023-03-27T03:51:36.302Z,4.17
2023-03-27T03:54:40.408Z,4.97
2023-03-27T03:57:48.269Z,3.63
2023-03-27T04:00:58.547Z,3.90
2023-03-27T04:04:12.774Z,3.70
2023-03-27T04:07:36.119Z,4.27
2023-03-27T04:10:57.400Z,3.97
2023-03-27T04:14:36.347Z,3.90
2023-03-27T04:17:48.805Z,4.03
2023-03-27T04:20:54.428Z,4.23
2023-03-27T04:24:02.662Z,4.50
2023-03-27T04:27:19.209Z,4.13
2023-03-27T04:30:38.694Z,4.30
2023-03-27T04:33:51.873Z,4.17
2023-03-27T04:37:18.423Z,4.20
2023-03-27T04:40:38.944Z,4.10
2023-03-27T04:43:42.166Z,3.97
2023-03-27T04:46:45.482Z,4.03
2023-03-27T04:49:50.832Z,4.97
2023-03-27T04:53:02.025Z,4.33
2023-03-27T04:56:12.436Z,4.07
2023-03-27T04:59:18.465Z,4.80
2023-03-27T05:02:34.394Z,4.30
2023-03-27T05:05:50.482Z,4.03
2023-03-27T05:08:55.007Z,4.60
2023-03-27T05:12:06.751Z,4.53
2023-03-27T05:15:18.090Z,4.50
2023-03-27T05:18:22.312Z,4.53
2023-03-27T05:21:27.321Z,4.63
2023-03-27T05:24:33.341Z,3.93
2023-03-27T05:27:36.489Z,4.33
2023-03-27T05:30:42.151Z,5.30
2023-03-27T05:33:51.652Z,5.10
2023-03-27T05:36:57.864Z,5.10
2023-03-27T05:40:05.936Z,4.87
2023-03-27T05:43:09.201Z,5.07
2023-03-27T05:46:13.722Z,4.77
2023-03-27T05:49:28.781Z,4.70
2023-03-27T05:52:40.911Z,5.07
2023-03-27T05:55:45.858Z,5.60
2023-03-27T05:58:48.820Z,5.57
2023-03-27T06:01:52.758Z,5.30
2023-03-27T06:05:01.262Z,6.03
2023-03-27T06:08:11.613Z,7.23
2023-03-27T06:11:19.115Z,5.03
2023-03-27T06:14:23.858Z,6.03
2023-03-27T06:17:48.433Z,5.77
2023-03-27T06:20:52.959Z,5.03
2023-03-27T06:23:56.845Z,4.50
2023-03-27T06:27:01.128Z,5.07
2023-03-27T06:30:11.111Z,4.70
2023-03-27T06:33:16.868Z,4.70
2023-03-27T06:36:20.574Z,5.43
2023-03-27T06:39:27.268Z,4.60
2023-03-27T06:42:36.925Z,5.20
2023-03-27T06:46:00.088Z,4.37
2023-03-27T06:49:38.087Z,5.20
2023-03-27T06:52:54.508Z,4.60
2023-03-27T06:56:14.805Z,5.07
2023-03-27T06:59:48.855Z,4.30
2023-03-27T07:02:58.005Z,5.43
2023-03-27T07:06:20.948Z,4.50
2023-03-27T07:09:30.476Z,4.87
2023-03-27T07:12:40.533Z,4.63
2023-03-27T07:15:45.435Z,4.87
2023-03-27T07:18:48.435Z,4.67
2023-03-27T07:21:51.405Z,4.83
2023-03-27T07:24:54.358Z,4.33
2023-03-27T07:28:00.483Z,4.93
2023-03-27T07:31:25.964Z,4.63
2023-03-27T07:34:35.237Z,4.57
2023-03-27T07:37:55.016Z,4.73
2023-03-27T07:41:13.728Z,4.30
2023-03-27T07:44:37.195Z,4.53
2023-03-27T07:47:45.994Z,4.30
2023-03-27T07:50:49.008Z,4.13
2023-03-27T07:53:58.347Z,3.87
2023-03-27T07:57:07.476Z,4.10
2023-03-27T08:00:32.564Z,4.10
2023-03-27T08:03:47.298Z,3.90
2023-03-27T08:06:54.671Z,4.50
2023-03-27T08:09:59.912Z,4.10
2023-03-27T08:13:03.936Z,3.87
2023-03-27T08:16:10.416Z,4.40
2023-03-27T08:19:19.595Z,4.23
2023-03-27T08:22:27.291Z,4.43
2023-03-27T08:25:53.147Z,4.37
2023-03-27T08:29:00.367Z,4.00
2023-03-27T08:32:09.531Z,3.70
2023-03-27T08:35:14.440Z,4.07
2023-03-27T08:38:25.982Z,3.77
2023-03-27T08:41:55.104Z,3.40
2023-03-27T08:45:20.922Z,3.87
2023-03-27T08:48:33.581Z,3.87
2023-03-27T08:51:47.023Z,3.50
2023-03-27T08:54:58.293Z,3.60
2023-03-27T08:58:20.188Z,3.20
2023-03-27T09:01:31.154Z,3.50
2023-03-27T09:04:49.384Z,3.23
2023-03-27T09:08:05.143Z,3.57
2023-03-27T09:11:25.077Z,3.60
2023-03-27T09:14:38.650Z,4.40
2023-03-27T09:17:49.256Z,3.40
2023-03-27T09:20:56.680Z,3.50
2023-03-27T09:24:08.585Z,4.07
2023-03-27T09:27:32.635Z,3.60
2023-03-27T09:31:01.873Z,3.57
2023-03-27T09:34:16.685Z,3.50
2023-03-27T09:37:22.003Z,4.10
2023-03-27T09:40:33.895Z,3.83
2023-03-27T09:43:43.370Z,3.50
2023-03-27T09:46:49.140Z,3.67
2023-03-27T09:49:57.544Z,3.77
2023-03-27T09:53:19.012Z,4.20
2023-03-27T09:56:51.759Z,3.67
2023-03-27T09:59:59.543Z,4.00
2023-03-27T10:03:08.749Z,3.37
2023-03-27T10:06:26.080Z,3.40
2023-03-27T10:09:41.022Z,3.23
2023-03-27T10:12:53.085Z,3.20
2023-03-27T10:16:01.976Z,3.10
2023-03-27T10:19:24.242Z,2.77
2023-03-27T10:22:30.807Z,3.10
2023-03-27T10:25:38.046Z,3.07
2023-03-27T10:29:16.559Z,2.93
2023-03-27T10:32:49.505Z,3.10
2023-03-27T10:36:12.561Z,2.80
2023-03-27T10:39:17.081Z,3.03
2023-03-27T10:42:57.079Z,3.03
2023-03-27T10:46:04.962Z,2.93
2023-03-27T10:49:24.321Z,2.80
2023-03-27T10:52:38.210Z,2.60
2023-03-27T10:56:02.412Z,3.40
2023-03-27T10:59:23.276Z,3.23
2023-03-27T11:02:38.532Z,3.23
2023-03-27T11:05:46.626Z,3.53
2023-03-27T11:09:06.125Z,3.73
2023-03-27T11:12:15.553Z,2.93
2023-03-27T11:15:31.796Z,3.23
2023-03-27T11:18:40.234Z,2.80
2023-03-27T11:21:49.520Z,3.00
2023-03-27T11:25:06.513Z,2.70
2023-03-27T11:28:21.002Z,2.97
2023-03-27T11:31:38.276Z,2.70
2023-03-27T11:34:49.056Z,2.60
2023-03-27T11:38:19.161Z,2.80
2023-03-27T11:41:26.932Z,2.90
2023-03-27T11:44:30.644Z,3.10
2023-03-27T11:48:10.686Z,2.77
2023-03-27T11:51:29.745Z,2.93
2023-03-27T11:54:58.728Z,3.40
2023-03-27T11:58:20.669Z,3.13
2023-03-27T12:01:28.931Z,3.17
2023-03-27T12:04:49.469Z,3.00
2023-03-27T12:08:19.643Z,2.73
2023-03-27T12:11:27.974Z,3.13
2023-03-27T12:14:49.997Z,2.80
2023-03-27T12:18:03.882Z,3.00
2023-03-27T12:21:18.053Z,2.83
2023-03-27T12:24:59.056Z,2.57
2023-03-27T12:28:44.736Z,3.10
2023-03-27T12:32:19.601Z,2.80
2023-03-27T12:35:28.287Z,2.40
2023-03-27T12:38:37.571Z,3.00
2023-03-27T12:41:46.260Z,3.20
2023-03-27T12:45:15.919Z,3.00
2023-03-27T12:48:30.316Z,2.60
2023-03-27T12:51:43.297Z,2.37
2023-03-27T12:55:31.116Z,2.33
2023-03-27T12:58:38.499Z,2.57
2023-03-27T13:02:51.189Z,2.63
2023-03-27T13:06:17.181Z,3.60
2023-03-27T13:09:37.198Z,2.87
2023-03-27T13:13:07.184Z,3.10
2023-03-27T13:16:33.533Z,3.60
2023-03-27T13:19:54.701Z,3.40
2023-03-27T13:23:22.249Z,3.00
2023-03-27T13:26:49.002Z,3.50
2023-03-27T13:29:54.141Z,3.30
2023-03-27T13:33:17.387Z,2.93
2023-03-27T13:36:24.725Z,2.77
2023-03-27T13:39:41.194Z,3.37
2023-03-27T13:42:47.696Z,3.00
2023-03-27T13:46:01.343Z,3.17
2023-03-27T13:50:00.696Z,3.00
2023-03-27T13:53:28.467Z,3.80
2023-03-27T13:56:54.586Z,4.47
2023-03-27T14:00:48.912Z,4.43
2023-03-27T14:04:29.512Z,3.77
2023-03-27T14:08:05.724Z,3.60
2023-03-27T14:11:46.090Z,3.57
2023-03-27T14:15:38.907Z,3.23
2023-03-27T14:19:32.592Z,3.63
2023-03-27T14:22:44.954Z,2.73
2023-03-27T14:25:57.873Z,3.20
2023-03-27T14:29:08.500Z,3.57
2023-03-27T14:32:18.352Z,2.77
2023-03-27T14:35:35.960Z,3.97
2023-03-27T14:38:41.552Z,2.50
2023-03-27T14:41:55.563Z,2.33
2023-03-27T14:45:20.728Z,2.83
2023-03-27T14:48:30.274Z,2.97
2023-03-27T14:51:42.127Z,2.70
2023-03-27T14:54:55.552Z,2.47
2023-03-27T14:58:11.497Z,2.60
2023-03-27T15:01:21.931Z,2.93
2023-03-27T15:04:31.545Z,3.07
2023-03-27T15:07:38.168Z,2.77
2023-03-27T15:10:52.195Z,3.10
2023-03-27T15:14:18.405Z,3.23
2023-03-27T15:17:23.632Z,2.60
2023-03-27T15:20:31.793Z,2.73
2023-03-27T15:23:41.478Z,3.50
2023-03-27T15:26:44.953Z,3.10
2023-03-27T15:29:53.376Z,2.80
2023-03-27T15:33:01.919Z,3.30
2023-03-27T15:36:10.117Z,3.00
2023-03-27T15:39:22.205Z,3.17
2023-03-27T15:42:25.176Z,3.30
2023-03-27T15:45:39.819Z,3.50
2023-03-27T15:48:46.011Z,3.50
2023-03-27T15:51:49.137Z,2.83
2023-03-27T15:54:57.070Z,3.13
2023-03-27T15:58:01.936Z,3.47
2023-03-27T16:01:18.439Z,2.83
2023-03-27T16:04:28.988Z,3.20
2023-03-27T16:07:45.098Z,3.07
2023-03-27T16:10:48.953Z,3.17
2023-03-27T16:13:56.707Z,2.97
2023-03-27T16:17:24.815Z,2.87
2023-03-27T16:20:40.098Z,3.10
2023-03-27T16:23:44.255Z,3.70
2023-03-27T16:26:47.763Z,3.60
2023-03-27T16:29:51.453Z,5.07
2023-03-27T16:33:01.951Z,5.20
2023-03-27T16:36:10.137Z,3.97
2023-03-27T16:39:23.571Z,6.27
2023-03-27T16:42:27.169Z,4.40
2023-03-27T16:45:32.172Z,5.07
2023-03-27T16:48:38.034Z,3.40
2023-03-27T16:51:44.565Z,4.73
2023-03-27T16:54:51.439Z,4.83
2023-03-27T16:57:55.151Z,4.90
2023-03-27T17:00:59.171Z,3.87
2023-03-27T17:04:02.231Z,6.17
2023-03-27T17:07:11.682Z,3.77
2023-03-27T17:10:15.456Z,9.43
2023-03-27T17:13:31.848Z,15.73
2023-03-27T17:16:37.555Z,5.60
2023-03-27T17:19:40.817Z,4.57
2023-03-27T17:22:45.559Z,4.47
2023-03-27T17:25:49.020Z,4.10
2023-03-27T17:28:53.365Z,4.43
2023-03-27T17:32:00.840Z,4.73
2023-03-27T17:35:05.056Z,6.43
2023-03-27T17:38:10.435Z,5.50
2023-03-27T17:41:14.606Z,5.30
2023-03-27T17:44:18.514Z,4.90
2023-03-27T17:47:21.702Z,6.60
2023-03-27T17:50:25.562Z,5.53
2023-03-27T17:53:30.263Z,4.67
2023-03-27T17:56:33.787Z,5.10
2023-03-27T17:59:38.790Z,4.00
2023-03-27T18:02:45.063Z,5.33
2023-03-27T18:05:48.236Z,4.90
2023-03-27T18:08:52.557Z,3.60
2023-03-27T18:11:57.979Z,3.37
2023-03-27T18:15:09.592Z,3.90
2023-03-27T18:18:13.169Z,4.80
2023-03-27T18:21:19.567Z,6.13
2023-03-27T18:24:25.571Z,5.13
2023-03-27T18:27:28.629Z,6.93
2023-03-27T18:30:32.385Z,6.93
2023-03-27T18:33:38.693Z,7.30
2023-03-27T18:36:42.449Z,4.53
2023-03-27T18:39:46.975Z,4.73
2023-03-27T18:42:50.521Z,5.10
2023-03-27T18:45:58.008Z,4.77
2023-03-27T18:49:13.507Z,4.03
2023-03-27T18:52:20.901Z,3.47
2023-03-27T18:55:27.066Z,4.90
2023-03-27T18:58:30.704Z,3.83
2023-03-27T19:01:34.923Z,4.83
2023-03-27T19:04:37.983Z,4.57
2023-03-27T19:07:44.397Z,5.37
2023-03-27T19:10:49.685Z,4.43
2023-03-27T19:14:18.686Z,5.83
2023-03-27T19:17:50.666Z,4.73
2023-03-27T19:21:13.114Z,3.83
2023-03-27T19:24:23.570Z,3.77
2023-03-27T19:27:38.605Z,4.27
2023-03-27T19:30:42.916Z,3.80
2023-03-27T19:33:46.176Z,4.43
2023-03-27T19:36:52.316Z,4.63
2023-03-27T19:39:55.660Z,4.10
2023-03-27T19:42:59.968Z,4.00
2023-03-27T19:46:14.766Z,4.57
2023-03-27T19:49:19.866Z,4.10
2023-03-27T19:52:34.459Z,4.27
2023-03-27T19:55:37.920Z,3.83
2023-03-27T19:58:42.282Z,4.20
2023-03-27T20:01:45.370Z,4.47
2023-03-27T20:04:48.429Z,4.20
2023-03-27T20:07:54.574Z,5.00
2023-03-27T20:10:57.737Z,4.40
2023-03-27T20:14:02.342Z,5.00
2023-03-27T20:17:12.244Z,5.03
2023-03-27T20:20:26.080Z,4.97
2023-03-27T20:23:31.808Z,4.03
2023-03-27T20:26:39.661Z,5.17
2023-03-27T20:29:49.912Z,4.30
2023-03-27T20:32:53.231Z,4.10
2023-03-27T20:35:56.488Z,4.40
2023-03-27T20:38:59.668Z,5.40
2023-03-27T20:42:03.725Z,5.53
2023-03-27T20:45:16.355Z,5.33
2023-03-27T20:48:21.857Z,5.00
2023-03-27T20:51:27.677Z,5.23
2023-03-27T20:54:35.887Z,4.47
2023-03-27T20:57:42.876Z,4.57
2023-03-27T21:00:48.796Z,4.73
2023-03-27T21:03:53.677Z,4.40
2023-03-27T21:06:57.729Z,5.00
2023-03-27T21:10:00.866Z,4.50
2023-03-27T21:13:04.387Z,4.73
2023-03-27T21:16:09.859Z,4.43
2023-03-27T21:19:13.191Z,4.77
2023-03-27T21:22:17.104Z,4.50
2023-03-27T21:25:20.824Z,4.40
2023-03-27T21:28:27.562Z,4.67
2023-03-27T21:31:32.234Z,5.30
2023-03-27T21:34:35.813Z,4.90
2023-03-27T21:37:38.992Z,3.83
2023-03-27T21:40:42.208Z,4.20
2023-03-27T21:43:45.528Z,4.07
2023-03-27T21:46:49.801Z,4.50
2023-03-27T21:49:52.761Z,3.73
2023-03-27T21:52:55.782Z,4.23
2023-03-27T21:55:59.118Z,4.17
2023-03-27T21:59:02.313Z,4.10
2023-03-27T22:02:06.717Z,4.93
2023-03-27T22:05:10.368Z,4.17
2023-03-27T22:08:17.183Z,4.07
2023-03-27T22:11:20.778Z,4.10
2023-03-27T22:14:26.514Z,3.93
2023-03-27T22:17:31.139Z,4.47
2023-03-27T22:20:34.621Z,5.17
2023-03-27T22:23:39.590Z,4.40
2023-03-27T22:26:45.202Z,3.70
2023-03-27T22:29:50.704Z,4.00
2023-03-27T22:32:56.306Z,4.87
2023-03-27T22:35:59.599Z,4.33
2023-03-27T22:39:03.848Z,4.03
2023-03-27T22:42:09.109Z,4.50
2023-03-27T22:45:12.754Z,3.83
2023-03-27T22:48:17.598Z,3.93
2023-03-27T22:51:23.174Z,4.87
2023-03-27T22:54:26.352Z,3.93
2023-03-27T22:57:30.296Z,4.43
2023-03-27T23:00:33.388Z,4.37
2023-03-27T23:03:39.347Z,3.90
2023-03-27T23:06:42.491Z,4.10
2023-03-27T23:09:50.417Z,4.30
2023-03-27T23:12:58.747Z,3.83
2023-03-27T23:16:02.404Z,4.13
2023-03-27T23:19:07.048Z,3.80
2023-03-27T23:22:10.469Z,4.50
2023-03-27T23:25:16.265Z,4.43
2023-03-27T23:28:22.400Z,3.27
2023-03-27T23:31:28.412Z,4.20
2023-03-27T23:34:35.939Z,4.37
2023-03-27T23:37:39.118Z,4.20
2023-03-27T23:40:45.630Z,4.37
2023-03-27T23:43:49.272Z,4.10
2023-03-27T23:46:55.264Z,4.67
2023-03-27T23:49:59.610Z,3.63
2023-03-27T23:53:02.590Z,3.73
2023-03-27T23:56:09.049Z,3.97
2023-03-27T23:59:12.001Z,4.03
